Главная страница
METAR-TAF:

METAR-TAF

Аэропорты :

Хейдрун, Норвегия

широта: 65-19-30N, долгота: 007-19-36E, высота над уровнем моря: 0 м

Текущие метеонаблюдения

Эта сводка был подготовлена 25 минут назад, в 19:20 UTC
Ветер 33 Узел от юго-западный
Температура 10°C
Влажность 87%
Давление 1012 hPa
Видимость: 4700 м
Сплошная облачность на высоте 700 фута
дымка

METAR: ENHE 151920Z 22033KT 4700 BR OVC007 10/08 Q1012 W///S5

Время: 20:45 (19:45 UTC)

Прогноз

Эта сводка был подготовлена 59 минут назад, в 18:46 UTC
Прогноз действительный с 15-го 18 UTC до 16-го 03 UTC
Ветер 30 Узел от юго-западный
Видимость: 8000 м
Отдельные облака на высоте 500 фута
Рассеянная облачность на высоте 2000 фута
временами
С 15-го 18 UTC до 15-го 21 UTC
Видимость: 2500 м
Сплошная облачность на высоте 400 фута
небольшой морось, дымка
изменения
С 15-го 23 UTC до 16-го 01 UTC
Ветер 40 Узел от южный-юго-западный

TAF: ENHE 151846Z 1518/1603 22030KT 8000 SCT005 BKN020 TEMPO 1518/1521 2500 -DZ BR OVC004 BECMG 1523/1601 20040KT

Метеонаблюдения и прогнозы для более 4000 аэропортов (сводки METAR и TAF).

Имеющиеся станции представлены на карте желтыми и красными точками.

Чтобы увидеть название станции, наведите на нее мышь.

Затем щелкните, чтобы увидеть метеонаблюдения и метеопрогнозы.

Управление картой: чтобы увеличить масштаб, щелкните зеленые кнопки с черным крестиком; чтобы уменьшить масштаб, щелкните зеленую кнопку с тире; для просмотра соседних карт щелкайте зеленые стрелки.


METAR-TAF: